rapidleech neatblue

LIMIT 8 FILES X IP X 24hs
203 Plugins
Premium Accounts :

Link to Transload:
 

Referrer:
 

 User & Pass (HTTP/FTP)
 Add Comments
 
PluginOptions:
Settings:
 Use Proxy Settings  
 Use Premium Account  
 Save To  
 Save Settings  
Check All | Un-Check All | Invert Selection | Match text | Show­

  Name Size Comments Date
Speedpremium.info_U-KOKODEWA_HISOYAKANI.rar 50.38 MB 21.08.2014 14:02:05
Speedpremium.info_U-YORIMITSU_GOMEN.rar 53.60 MB 21.08.2014 14:04:11
Speedpremium.info_Girls.und.Panzer.Kore.ga.Hontou.ova.part40.rar 900.00 MB 21.08.2014 14:05:35
Speedpremium.info_05022014Estadística_para_Administración_y_Economía,_7ma._Edición_-_Richard_I._Levin.rar 53.27 MB 21.08.2014 14:07:56
Speedpremium.info_Pt1aC1ark.Ess.CD1.flac.part1.rar 301.00 MB 21.08.2014 14:09:12
Speedpremium.info_[120330]_Sora.part5.rar 436.47 MB 21.08.2014 14:09:33
Speedpremium.info_[120330]_Sora.part4.rar 453.00 MB 21.08.2014 14:09:53
Speedpremium.info_ROSE_GARDEN.zip 183.56 MB 21.08.2014 14:10:42
Speedpremium.info_Pt1aC1ark.Ess.CD2.flac.part1.rar 252.00 MB 21.08.2014 14:12:32
Speedpremium.info_11052014Econometria_con_aplicaciones_-_Loria.rar 57.12 MB 21.08.2014 14:13:53
Speedpremium.info_Pt1aC1ark.Ess.CD2.flac.part2.rar 221.07 MB 21.08.2014 14:16:07
Speedpremium.info_kooru_syakunetu_S.zip 384.91 MB 21.08.2014 14:17:41
Speedpremium.info_Pt1aC1ark.Ess.CD3.flac.part1.rar 265.00 MB 21.08.2014 14:21:16
Speedpremium.info_Ditya.oktyabrya.2011.P.HDRip2100.part1.rar 600.00 MB 21.08.2014 14:22:42
Speedpremium.info_KK_LA_sybs.rar 434.82 MB 21.08.2014 14:24:03
Speedpremium.info_Pt1aC1ark.Ess.CD3.flac.part2.rar 259.53 MB 21.08.2014 14:27:14
Speedpremium.info_[120330]_Princess-Style.rar 220.31 MB 21.08.2014 14:32:54
Speedpremium.info_Arabic_Frequency_Dictionary.pdf";_filename*=utf-8''Arabic_Frequency_Dictionary.pdf 143.68 MB 21.08.2014 14:37:41
Speedpremium.info_SKIENGTAJDBASCRY.part13.rar 455.00 MB 21.08.2014 14:43:32
Speedpremium.info_SKIENGTAJDBASCRY.part10.rar 455.00 MB 21.08.2014 14:48:40
Speedpremium.info_fcp2014-08-07_960.mp4 367.33 MB 21.08.2014 14:51:39
Speedpremium.info_Anals-HD-94.part2.rar 500.00 MB 21.08.2014 14:51:45
Speedpremium.info_2014-08-21_-1090783481.part1.rar 302.00 MB 21.08.2014 14:55:45
Speedpremium.info_2014-08-21_-1090783481.part2.rar 143.22 MB 21.08.2014 14:58:19
Speedpremium.info_blacstd1.part01.rar 401.00 MB 21.08.2014 15:04:44
Speedpremium.info_SKIENGTAJDBASCRY.part08.rar 455.00 MB 21.08.2014 15:06:26
Speedpremium.info_[120224]_Chocolate_Princess.rar 381.55 MB 21.08.2014 15:08:08
Speedpremium.info_2014-08-21_565068503.part1.rar 302.00 MB 21.08.2014 15:16:51
Speedpremium.info_blacstd1.part02.rar 401.00 MB 21.08.2014 15:17:00
Speedpremium.info_Lubov.po.retseptu.i.bez.2014.D.BDRip.720p.part08.rar 500.00 MB 21.08.2014 15:21:47
Speedpremium.info_blacstd1.part05.rar 401.00 MB 21.08.2014 15:24:15
Speedpremium.info_SKIENGTAJDBASCRY.part05.rar 455.00 MB 21.08.2014 15:24:27
Speedpremium.info_2014-08-21_565068503.part2.rar 302.00 MB 21.08.2014 15:24:38
Speedpremium.info_Lubov.po.retseptu.i.bez.2014.D.BDRip.720p.part10.rar 291.23 MB 21.08.2014 15:28:00
Speedpremium.info_341bullet_xo.mp4 217.11 MB 21.08.2014 15:28:01
Speedpremium.info_SKIENGTAJDBASCRY.part04.rar 455.00 MB 21.08.2014 15:29:47
Speedpremium.info_SKIENGTAJDBASCRY.part03.rar 455.00 MB 21.08.2014 15:30:21
Speedpremium.info_blacstd1.part07.rar 401.00 MB 21.08.2014 15:30:47
Speedpremium.info_bb5883500k.wmv 519.29 MB 21.08.2014 15:30:59
Speedpremium.info_2014-08-21_565068503.part3.rar 137.53 MB 21.08.2014 15:34:45
Speedpremium.info_blacstd1.part10.rar 401.00 MB 21.08.2014 15:39:05
Speedpremium.info_JUX-409.part1.rar 401.00 MB 21.08.2014 15:40:48
Speedpremium.info_2014-08-21_105270677.rar 295.41 MB 21.08.2014 15:42:33
Speedpremium.info_blacstd1.part12.rar 401.00 MB 21.08.2014 15:48:06
Speedpremium.info_Body_Language_for_Entrepreneurs.part1.rar 501.00 MB 21.08.2014 15:49:49
Speedpremium.info_2014-08-21_1353531761.rar 218.95 MB 21.08.2014 15:51:06
Speedpremium.info_JUX-409.part2.rar 401.00 MB 21.08.2014 15:52:11
Speedpremium.info_blacstd1.part14.rar 401.00 MB 21.08.2014 15:53:14
Speedpremium.info_Dragonette_-_Fixin_To_Thrill.rar 310.85 MB 21.08.2014 15:54:09
Speedpremium.info_Body_Language_for_Entrepreneurs.part2.rar 218.64 MB 21.08.2014 15:54:41
Speedpremium.info_rozen_maiden_ii_v10.rar 124.89 MB 21.08.2014 15:54:56
Speedpremium.info_embed-gxb8avy4art0-650x370.html Unknown 21.08.2014 15:56:03
Speedpremium.info_udU3dgamDev.part2.rar 101.00 MB 21.08.2014 15:57:19
Speedpremium.info_udU3dgamDev.part3.rar 101.00 MB 21.08.2014 15:57:24
Speedpremium.info_Brides.And.Bitches.part1.rar 999.00 MB 21.08.2014 15:57:53
Speedpremium.info_udU3dgamDev.part5.rar 59.96 MB 21.08.2014 15:58:48
Speedpremium.info_udU3dgamDev.part4.rar 101.00 MB 21.08.2014 15:59:01
Speedpremium.info_Minecraft_1.7.10_forge_10.13.0.1197___optifine_hd_a4___shaders_-_sborka.part2.rar 110.00 MB 21.08.2014 15:59:33
Speedpremium.info_blacstd1.part15.rar 319.59 MB 21.08.2014 16:09:04
Speedpremium.info_2014-08-21_1604916488.rar 264.28 MB 21.08.2014 16:09:30
Speedpremium.info_Will.And.Grace.S03E06.love_plus_one.dvdrip_xvid-fov.rar 171.04 MB 21.08.2014 16:18:01
Speedpremium.info_C4DTutorial.NetHologramCity.part2.rar 79.02 MB 21.08.2014 16:19:26
Speedpremium.info_SCR-077.part7.rar 143.05 MB 21.08.2014 16:22:55
Speedpremium.info_udU3dgamDev.part1.rar 101.00 MB 21.08.2014 16:23:02
Speedpremium.info_C4DTutorial.NetHologramCity.part1.rar 400.00 MB 21.08.2014 16:23:04
Speedpremium.info_Marc.Dorcel.Rosa.Intimate.Diary.XXX.DVDRip.part1.rar 800.00 MB 21.08.2014 16:24:36
Speedpremium.info_JUX-409.part5.rar 122.32 MB 21.08.2014 16:27:10
Speedpremium.info_c9383.mp4 361.10 MB 21.08.2014 16:28:00
Speedpremium.info_Marc.Dorcel.Rosa.Intimate.Diary.XXX.DVDRip.part2.rar 144.17 MB 21.08.2014 16:28:41
Speedpremium.info_SCR-077.part6.rar 143.05 MB 21.08.2014 16:30:02
Speedpremium.info_2014-08-21_2145085740.rar 33.45 MB 21.08.2014 16:36:57
Speedpremium.info_SCR-077.part8.rar 72.52 MB 21.08.2014 16:40:26
Speedpremium.info_72F4PYXTTA Unknown 21.08.2014 16:43:02
Speedpremium.info_[120330]_Vampire_Crusaders.rar 270.94 MB 21.08.2014 16:45:09
Speedpremium.info_Aoihonoo.ep05.1280x720.mp4 445.22 MB 21.08.2014 16:46:15
Speedpremium.info_[120330]_Dekakute_Ecchi.rar 381.41 MB 21.08.2014 16:49:15
Speedpremium.info_Porn_Idol_Uta_Kohaku's_Gokkun_Dungeon_2014.mp4 405.19 MB 21.08.2014 16:53:35
Speedpremium.info_1430259442j& Unknown 21.08.2014 16:55:08
Speedpremium.info_Naked-Public.Show-Arabic-Goddess-2014.07.19.164211.mp4.html Unknown 21.08.2014 16:57:10
Speedpremium.info_a0542.rar 423.36 MB 21.08.2014 17:03:44
Speedpremium.info_Oyaji.no.Senaka.E03.720p.HDTV.x264.AAC-ADaoiL.mkv 844.54 MB 21.08.2014 17:10:52
Speedpremium.info_KITAKITA_v13.part5.rar 800.00 MB 21.08.2014 17:20:36
Speedpremium.info_m0ng0l.Lat.DVDRip.2007.peliculasmas.com.avi 798.46 MB 21.08.2014 17:21:16
Speedpremium.info_a0543.rar 417.18 MB 21.08.2014 17:24:20
Speedpremium.info_RuntimeDNA.part03.rar 900.00 MB 21.08.2014 17:25:39
Speedpremium.info_a0544.rar 449.12 MB 21.08.2014 17:30:26
Speedpremium.info_HappyTugs.Angelina.Chung.Mia.Li.XXX.02.08.14.MP4-xET_pr0nblog.softarchive.net.mkv 608.21 MB 21.08.2014 17:37:09
Speedpremium.info_Lolipop_HD_wap.mp4 471.33 MB 21.08.2014 17:46:12
Speedpremium.info_Minecraft_1.7.10_forge_10.13.0.1197___optifine_hd_a4___shaders_-_sborka.part3.rar 110.00 MB 21.08.2014 17:46:34
Speedpremium.info_LSVGD0RES.www.blog-peliculas.com.part1.rar 750.00 MB 21.08.2014 17:52:05
Speedpremium.info_f260a84025.mp4.rar 626.75 MB 21.08.2014 17:55:41
Speedpremium.info_gd7wbrpTwobne.part1.rar 1.00 GB 21.08.2014 17:57:19
Speedpremium.info_RuntimeDNA.part06.rar 900.00 MB 21.08.2014 18:01:34
Speedpremium.info_RuntimeDNA.part05.rar.html Unknown 21.08.2014 18:05:17
Speedpremium.info_Stu5roit.mp4.html Unknown 21.08.2014 18:06:21
Speedpremium.info_Avi_Buffalo_-_At_Best_Cuckold_(2014)_FLAC.rar 227.18 MB 21.08.2014 18:12:32
Speedpremium.info_3DS0642.rar Unknown 21.08.2014 18:16:18
Speedpremium.info_Lisa.wmv 421.41 MB 21.08.2014 18:18:39
Speedpremium.info_Stu5roit.mp4 19.96 MB 21.08.2014 18:19:11
Speedpremium.info_Amateur_Stri2ked_Hot_Girls.avi 90.12 MB 21.08.2014 18:20:54
Speedpremium.info_TRICK_THREE.part25.rar 800.00 MB 21.08.2014 18:22:20
Speedpremium.info_gd7wbrpTwobne.part2.rar 1.00 GB 21.08.2014 18:23:38
Speedpremium.info_inari5.part06.rar 1.00 GB 21.08.2014 18:28:01
Speedpremium.info_MARED.mkv 750.47 MB 21.08.2014 18:28:10
Speedpremium.info_Sfrd418904ad.part1.rar 551.00 MB 21.08.2014 18:37:26
Speedpremium.info_RSS_ArmondRizzo_RoccoSteele.mp4 524.95 MB 21.08.2014 18:38:54
Speedpremium.info_webappsw_nodejs_softarchive.net.part4.rar 301.00 MB 21.08.2014 18:42:02
Speedpremium.info_7tqul.Win.Magazine.Speciali.Windows.Gratis.No.14..SettembreOttobre.2014.pdf 101.47 MB 21.08.2014 18:42:28
Speedpremium.info_mnmsophiabrick_mobile.mp4 283.39 MB 21.08.2014 18:46:25
Speedpremium.info_gd7wbrpTwobne.part3.rar 396.99 MB 21.08.2014 18:47:03
Speedpremium.info_Tatsunami_Youtoku_-_Twin_Miiilf_Vol_1.zip 166.01 MB 21.08.2014 18:47:58
Speedpremium.info_KITAKITA_v14.part1.rar 800.00 MB 21.08.2014 18:49:10
Speedpremium.info_TRICK_THREE.part24.rar 800.00 MB 21.08.2014 18:50:09
  Total: 39.82 GB    
Works With
2shared.com | 4shared.com | ADrive.com | Badongo.com | Bitshare.com | Crocko.com | Depositfiles.com | Enterupload.com | Filefactory.com | Hotfile.com | Letitbit.net | Mediafire.com | Netload.in | Oron.com | Rapidshare.com | Share-Online.biz | Shareflare.net | Turbobit.net | UploadStation.com | Uploaded.to | Uploading.com | ZShare.net
Kills
Anonym.to | Linkbucks.com | Lix.in
Rapidshare.com Folders | Usercash.com




Display Links Only: Kill Links Only:

Lix Checker v3.0.0 | Copyright Dman - MaxW.org | Optimized by zpikdum and sarkar
Mod by eqbal | Ajax'd by TheOnly92 | Updated by Th3-822

 

File Size Limit: 1.00 GB
Auto-Delete: 5 Hours After Transload

In Use:59.77 GB / 285.43 GB


CREDITS